Badger, Iowa
Current Conditions -  °F | °C
As of 6:15 AM on Thursday 23 Oct 2014 (Local Time) from KFOD Reporting Station
Overcast Overcast  
Wind Chill: 54°   Ceiling: 500
Heat Index: 54°   Visibility: 10mi
Dew Point: 52°   Wind: 5mph
Humidity: 94%   Direction: 210°SSW
Pressure: 30.02"   Gusts: NA
Location:  42.61°N, 94.15°W
Report Text: KFOD 231115Z AUTO 21004KT 10SM OVC005 12/11 A3002 RMK AO1
Loading
Personal Weather Stations






























Interactive Weather Map
Tropical Storm Tracking
New forecast layout! Learn more

10-Day Weather Forecast

Advertisements
Track Severe Weather on mobile